Detroit, Michigan
Traffic Map
Current Weather Conditions
Detroit, Michigan
Broken Clouds
Broken Clouds
68°
Feels Like: 68°
Wind Chill: 68° Ceiling: 21000
Heat Index: 68° Visibility: 10mi
Dew Point: 68° Wind: 3mph
Humidity: 100% Direction: 80° (E)
Pressure: 30.14in Gusts: 0mph
Raw Report DataCYQG 271000Z 08003KT 10SM SCT150 BKN210 20/20 A3014 RMK AC4CI3 SLP205 DENSITY ALT 1100FT
Traffic Incident Summary
Active as of:
Severity:
Category:
InformationThere was an issue retrieving the traffic information for this location. Please try a different location or try again shortly.
Advertisements
Track Severe Weather on mobile